createdAt,value
2017-09-09T00:00:51.999Z,15.62
2017-09-09T00:01:52.010Z,15.61
2017-09-09T00:02:52.012Z,15.60
2017-09-09T00:03:52.017Z,15.59
2017-09-09T00:04:52.012Z,15.58
2017-09-09T00:05:52.013Z,15.58
2017-09-09T00:06:52.016Z,15.58
2017-09-09T00:07:52.022Z,15.57
2017-09-09T00:08:52.025Z,15.56
2017-09-09T00:09:52.025Z,15.57
2017-09-09T00:10:52.030Z,15.57
2017-09-09T00:11:52.040Z,15.58
2017-09-09T00:12:52.040Z,15.56
2017-09-09T00:13:52.048Z,15.58
2017-09-09T00:14:52.046Z,15.58
2017-09-09T00:15:52.049Z,15.58
2017-09-09T00:16:52.049Z,15.57
2017-09-09T00:17:52.054Z,15.54
2017-09-09T00:18:52.057Z,15.51
2017-09-09T00:19:52.061Z,15.50
2017-09-09T00:20:52.065Z,15.48
2017-09-09T00:21:52.064Z,15.45
2017-09-09T00:22:52.074Z,15.43
2017-09-09T00:23:52.118Z,15.41
2017-09-09T00:24:52.085Z,15.39
2017-09-09T00:25:52.077Z,15.35
2017-09-09T00:26:52.180Z,15.34
2017-09-09T00:27:52.090Z,15.32
2017-09-09T00:28:52.105Z,15.33
2017-09-09T00:29:52.116Z,15.32
2017-09-09T00:30:52.105Z,15.33
2017-09-09T00:31:52.102Z,15.34
2017-09-09T00:32:52.164Z,15.35
2017-09-09T00:33:52.124Z,15.36
2017-09-09T00:34:52.111Z,15.39
2017-09-09T00:35:52.186Z,15.40
2017-09-09T00:36:52.127Z,15.42
2017-09-09T00:37:52.162Z,15.44
2017-09-09T00:38:52.128Z,15.48
2017-09-09T00:39:52.188Z,15.50
2017-09-09T00:40:52.311Z,15.53
2017-09-09T00:41:52.169Z,15.54
2017-09-09T00:42:52.244Z,15.55
2017-09-09T00:43:52.249Z,15.57
2017-09-09T00:44:52.141Z,15.58
2017-09-09T00:45:52.149Z,15.56
2017-09-09T00:46:52.264Z,15.56
2017-09-09T00:47:52.201Z,15.55
2017-09-09T00:48:52.176Z,15.56
2017-09-09T00:49:52.163Z,15.58
2017-09-09T00:50:52.167Z,15.60
2017-09-09T00:51:52.211Z,15.63
2017-09-09T00:52:52.214Z,15.63
2017-09-09T00:53:52.195Z,15.64
2017-09-09T00:54:52.192Z,15.65
2017-09-09T00:55:52.182Z,15.65
2017-09-09T00:56:52.196Z,15.66
2017-09-09T00:57:52.396Z,15.65
2017-09-09T00:58:52.220Z,15.65
2017-09-09T00:59:52.204Z,15.64
2017-09-09T01:03:14.827Z,15.64
2017-09-09T01:03:18.091Z,15.63
2017-09-09T01:03:19.301Z,15.65
2017-09-09T01:05:51.948Z,15.65
2017-09-09T01:05:54.065Z,15.66
2017-09-09T01:05:55.586Z,15.66
2017-09-09T01:08:31.141Z,15.66
2017-09-09T01:08:33.448Z,15.67
2017-09-09T01:08:52.228Z,15.67
2017-09-09T01:11:45.957Z,15.68
2017-09-09T01:11:47.597Z,15.68
2017-09-09T01:11:52.252Z,15.68
2017-09-09T01:14:31.350Z,15.68
2017-09-09T01:14:33.494Z,15.66
2017-09-09T01:14:52.241Z,15.67
2017-09-09T01:17:47.072Z,15.64
2017-09-09T01:17:48.666Z,15.65
2017-09-09T01:17:52.257Z,15.63
2017-09-09T01:20:30.961Z,15.64
2017-09-09T01:20:33.092Z,15.65
2017-09-09T01:20:52.281Z,15.65
2017-09-09T01:23:51.954Z,15.66
2017-09-09T01:23:54.305Z,15.68
2017-09-09T01:23:55.630Z,15.68
2017-09-09T01:27:07.254Z,15.68
2017-09-09T01:27:09.117Z,15.68
2017-09-09T01:27:10.226Z,15.66
2017-09-09T01:29:52.997Z,15.67
2017-09-09T01:29:54.592Z,15.66
2017-09-09T01:29:56.012Z,15.66
2017-09-09T01:32:31.900Z,15.65
2017-09-09T01:32:33.418Z,15.65
2017-09-09T01:32:52.302Z,15.66
2017-09-09T01:35:53.900Z,15.66
2017-09-09T01:35:55.554Z,15.68
2017-09-09T01:35:56.770Z,15.68
2017-09-09T01:39:07.192Z,15.67
2017-09-09T01:39:08.842Z,15.68
2017-09-09T01:39:10.157Z,15.67
2017-09-09T01:41:53.946Z,15.67
2017-09-09T01:41:56.155Z,15.67
2017-09-09T01:41:57.375Z,15.66
2017-09-09T01:45:07.227Z,15.66
2017-09-09T01:45:09.599Z,15.67
2017-09-09T01:45:10.829Z,15.66
2017-09-09T01:47:44.877Z,15.66
2017-09-09T01:47:46.511Z,15.67
2017-09-09T01:47:52.379Z,15.68
2017-09-09T01:51:02.157Z,15.68
2017-09-09T01:51:03.874Z,15.67
2017-09-09T01:51:05.190Z,15.67
2017-09-09T01:53:49.881Z,15.67
2017-09-09T01:53:51.553Z,15.65
2017-09-09T01:53:52.872Z,15.64
2017-09-09T01:57:03.233Z,15.63
2017-09-09T01:57:04.959Z,15.61
2017-09-09T01:57:06.216Z,15.60
2017-09-09T01:59:54.022Z,15.60
2017-09-09T01:59:56.217Z,15.60
2017-09-09T01:59:57.537Z,15.60
2017-09-09T02:00:52.403Z,15.63
2017-09-09T02:01:52.403Z,15.63
2017-09-09T02:02:52.402Z,15.64
2017-09-09T02:03:52.406Z,15.62
2017-09-09T02:04:52.413Z,15.60
2017-09-09T02:05:52.416Z,15.58
2017-09-09T02:06:52.417Z,15.56
2017-09-09T02:07:52.421Z,15.53
2017-09-09T02:08:52.424Z,15.53
2017-09-09T02:09:52.432Z,15.51
2017-09-09T02:10:52.429Z,15.50
2017-09-09T02:11:52.432Z,15.48
2017-09-09T02:12:52.435Z,15.48
2017-09-09T02:13:52.439Z,15.46
2017-09-09T02:14:52.441Z,15.45
2017-09-09T02:15:52.447Z,15.45
2017-09-09T02:16:52.448Z,15.45
2017-09-09T02:17:52.449Z,15.45
2017-09-09T02:18:52.477Z,15.45
2017-09-09T02:19:52.458Z,15.44
2017-09-09T02:20:52.463Z,15.45
2017-09-09T02:21:52.464Z,15.44
2017-09-09T02:22:52.466Z,15.45
2017-09-09T02:23:52.471Z,15.45
2017-09-09T02:24:52.507Z,15.47
2017-09-09T02:25:52.478Z,15.47
2017-09-09T02:26:52.483Z,15.48
2017-09-09T02:27:52.508Z,15.49
2017-09-09T02:28:52.489Z,15.46
2017-09-09T02:29:52.496Z,15.46
2017-09-09T02:30:52.498Z,15.44
2017-09-09T02:31:52.498Z,15.44
2017-09-09T02:32:52.500Z,15.44
2017-09-09T02:33:52.509Z,15.41
2017-09-09T02:34:52.513Z,15.42
2017-09-09T02:35:52.839Z,15.43
2017-09-09T02:36:52.527Z,15.44
2017-09-09T02:37:52.518Z,15.45
2017-09-09T02:38:52.520Z,15.46
2017-09-09T02:39:52.526Z,15.48
2017-09-09T02:40:52.530Z,15.48
2017-09-09T02:41:52.530Z,15.48
2017-09-09T02:42:52.538Z,15.49
2017-09-09T02:43:52.535Z,15.48
2017-09-09T02:44:52.541Z,15.47
2017-09-09T02:45:52.547Z,15.48
2017-09-09T02:46:52.549Z,15.46
2017-09-09T02:47:52.556Z,15.47
2017-09-09T02:48:52.554Z,15.46
2017-09-09T02:49:52.560Z,15.47
2017-09-09T02:50:52.566Z,15.47
2017-09-09T02:51:52.567Z,15.48
2017-09-09T02:52:52.576Z,15.49
2017-09-09T02:53:52.572Z,15.50
2017-09-09T02:54:52.575Z,15.49
2017-09-09T02:55:52.582Z,15.48
2017-09-09T02:56:52.580Z,15.47
2017-09-09T02:57:52.585Z,15.45
2017-09-09T02:58:52.590Z,15.46
2017-09-09T02:59:52.593Z,15.47
2017-09-09T03:00:52.595Z,15.46
2017-09-09T03:01:52.602Z,15.47
2017-09-09T03:02:52.605Z,15.48
2017-09-09T03:03:52.611Z,15.49
2017-09-09T03:04:52.613Z,15.46
2017-09-09T03:05:52.613Z,15.47
2017-09-09T03:06:52.621Z,15.48
2017-09-09T03:07:52.764Z,15.47
2017-09-09T03:08:52.640Z,15.47
2017-09-09T03:09:52.626Z,15.47
2017-09-09T03:10:52.633Z,15.47
2017-09-09T03:11:52.631Z,15.47
2017-09-09T03:12:52.636Z,15.46
2017-09-09T03:13:52.638Z,15.46
2017-09-09T03:14:52.644Z,15.46
2017-09-09T03:15:52.646Z,15.45
2017-09-09T03:16:52.647Z,15.44
2017-09-09T03:17:52.651Z,15.42
2017-09-09T03:18:52.654Z,15.42
2017-09-09T03:19:52.980Z,15.43
2017-09-09T03:20:52.661Z,15.43
2017-09-09T03:21:52.664Z,15.42
2017-09-09T03:22:52.669Z,15.40
2017-09-09T03:23:52.674Z,15.40
2017-09-09T03:24:52.675Z,15.40
2017-09-09T03:25:52.679Z,15.40
2017-09-09T03:26:52.683Z,15.40
2017-09-09T03:27:52.685Z,15.41
2017-09-09T03:28:44.538Z,15.41
2017-09-09T03:30:59.847Z,15.39
2017-09-09T03:31:01.401Z,15.40
2017-09-09T03:31:02.729Z,15.37
2017-09-09T03:31:52.699Z,15.36
2017-09-09T03:32:52.700Z,15.35
2017-09-09T03:33:52.703Z,15.35
2017-09-09T03:34:52.709Z,15.33
2017-09-09T03:35:52.712Z,15.33
2017-09-09T03:36:52.716Z,15.33
2017-09-09T03:37:52.730Z,15.33
2017-09-09T03:38:52.720Z,15.31
2017-09-09T03:39:52.724Z,15.30
2017-09-09T03:40:52.730Z,15.29
2017-09-09T03:41:52.732Z,15.27
2017-09-09T03:42:52.735Z,15.28
2017-09-09T03:43:52.740Z,15.27
2017-09-09T03:44:52.739Z,15.25
2017-09-09T03:45:52.742Z,15.25
2017-09-09T03:46:52.745Z,15.25
2017-09-09T03:47:52.749Z,15.25
2017-09-09T03:48:52.757Z,15.24
2017-09-09T03:49:52.754Z,15.22
2017-09-09T03:50:52.772Z,15.22
2017-09-09T03:51:52.764Z,15.21
2017-09-09T03:52:52.772Z,15.22
2017-09-09T03:53:52.772Z,15.22
2017-09-09T03:54:52.775Z,15.21
2017-09-09T03:55:52.782Z,15.21
2017-09-09T03:56:52.781Z,15.20
2017-09-09T03:57:52.783Z,15.21
2017-09-09T03:58:52.786Z,15.20
2017-09-09T03:59:52.792Z,15.20
2017-09-09T04:00:52.793Z,15.20
2017-09-09T04:01:52.799Z,15.20
2017-09-09T04:02:52.801Z,15.18
2017-09-09T04:03:52.811Z,15.18
2017-09-09T04:04:52.813Z,15.16
2017-09-09T04:05:52.813Z,15.16
2017-09-09T04:06:52.820Z,15.15
2017-09-09T04:07:52.827Z,15.15
2017-09-09T04:08:52.830Z,15.14
2017-09-09T04:09:52.824Z,15.12
2017-09-09T04:10:52.829Z,15.13
2017-09-09T04:11:52.831Z,15.11
2017-09-09T04:12:52.834Z,15.11
2017-09-09T04:13:52.836Z,15.11
2017-09-09T04:14:52.841Z,15.10
2017-09-09T04:15:52.840Z,15.10
2017-09-09T04:16:52.844Z,15.08
2017-09-09T04:17:52.858Z,15.09
2017-09-09T04:18:52.854Z,15.08
2017-09-09T04:19:52.855Z,15.09
2017-09-09T04:20:52.859Z,15.08
2017-09-09T04:21:52.864Z,15.09
2017-09-09T04:22:52.875Z,15.07
2017-09-09T04:23:52.872Z,15.06
2017-09-09T04:24:52.876Z,15.06
2017-09-09T04:25:52.880Z,15.04
2017-09-09T04:26:52.880Z,15.04
2017-09-09T04:27:52.880Z,15.03
2017-09-09T04:28:52.885Z,15.02
2017-09-09T04:29:52.890Z,15.01
2017-09-09T04:30:52.929Z,15.01
2017-09-09T04:31:52.904Z,14.99
2017-09-09T04:32:52.902Z,14.99
2017-09-09T04:33:52.907Z,14.97
2017-09-09T04:34:52.908Z,14.95
2017-09-09T04:35:52.913Z,14.96
2017-09-09T04:36:52.912Z,14.97
2017-09-09T04:37:52.918Z,14.95
2017-09-09T04:38:52.924Z,14.95
2017-09-09T04:39:52.930Z,14.95
2017-09-09T04:40:52.926Z,14.94
2017-09-09T04:41:52.930Z,14.94
2017-09-09T04:42:52.937Z,14.91
2017-09-09T04:43:52.943Z,14.91
2017-09-09T04:44:52.936Z,14.89
2017-09-09T04:45:52.944Z,14.89
2017-09-09T04:46:52.946Z,14.89
2017-09-09T04:47:52.948Z,14.86
2017-09-09T04:48:52.970Z,14.82
2017-09-09T04:49:52.955Z,14.82
2017-09-09T04:50:52.959Z,14.78
2017-09-09T04:51:52.960Z,14.75
2017-09-09T04:52:52.966Z,14.75
2017-09-09T04:53:52.973Z,14.73
2017-09-09T04:54:52.972Z,14.71
2017-09-09T04:55:52.975Z,14.71
2017-09-09T04:56:52.988Z,14.71
2017-09-09T04:57:52.989Z,14.72
2017-09-09T04:58:52.985Z,14.71
2017-09-09T04:59:52.990Z,14.72
2017-09-09T05:00:52.991Z,14.73
2017-09-09T05:01:52.998Z,14.75
2017-09-09T05:02:52.997Z,14.76
2017-09-09T05:03:53.003Z,14.76
2017-09-09T05:04:53.004Z,14.78
2017-09-09T05:05:53.007Z,14.81
2017-09-09T05:06:53.020Z,14.83
2017-09-09T05:07:53.016Z,14.87
2017-09-09T05:08:53.020Z,14.90
2017-09-09T05:09:53.035Z,14.92
2017-09-09T05:10:53.026Z,14.93
2017-09-09T05:11:53.028Z,14.94
2017-09-09T05:12:53.029Z,14.95
2017-09-09T05:13:53.040Z,14.97
2017-09-09T05:14:53.042Z,14.97
2017-09-09T05:15:53.043Z,14.98
2017-09-09T05:16:53.044Z,14.99
2017-09-09T05:17:53.048Z,14.99
2017-09-09T05:18:53.112Z,14.99
2017-09-09T05:19:53.071Z,14.99
2017-09-09T05:20:53.065Z,14.99
2017-09-09T05:21:53.062Z,14.98
2017-09-09T05:22:53.070Z,15.00
2017-09-09T05:23:53.068Z,14.99
2017-09-09T05:24:53.083Z,14.98
2017-09-09T05:25:53.076Z,14.98
2017-09-09T05:26:53.078Z,14.96
2017-09-09T05:27:53.080Z,14.96
2017-09-09T05:28:53.086Z,14.96
2017-09-09T05:29:53.086Z,14.94
2017-09-09T05:30:56.866Z,14.94
2017-09-09T05:31:53.097Z,14.93
2017-09-09T05:32:53.106Z,14.93
2017-09-09T05:33:53.102Z,14.93
2017-09-09T05:34:53.127Z,14.92
2017-09-09T05:35:53.114Z,14.91
2017-09-09T05:36:53.116Z,14.89
2017-09-09T05:37:53.116Z,14.88
2017-09-09T05:38:53.120Z,14.88
2017-09-09T05:39:53.130Z,14.87
2017-09-09T05:40:53.139Z,14.85
2017-09-09T05:41:53.127Z,14.81
2017-09-09T05:42:53.129Z,14.81
2017-09-09T05:43:53.135Z,14.81
2017-09-09T05:44:53.138Z,14.83
2017-09-09T05:45:53.154Z,14.81
2017-09-09T05:46:53.152Z,14.81
2017-09-09T05:47:53.151Z,14.80
2017-09-09T05:48:53.151Z,14.79
2017-09-09T05:49:53.153Z,14.78
2017-09-09T05:50:53.172Z,14.80
2017-09-09T05:51:53.167Z,14.80
2017-09-09T05:52:53.165Z,14.79
2017-09-09T05:53:53.168Z,14.80
2017-09-09T05:54:53.170Z,14.80
2017-09-09T05:55:53.172Z,14.81
2017-09-09T05:56:53.176Z,14.81
2017-09-09T05:57:53.184Z,14.83
2017-09-09T05:58:53.187Z,14.87
2017-09-09T05:59:53.185Z,14.89
2017-09-09T06:00:53.191Z,14.93
2017-09-09T06:01:53.194Z,14.95
2017-09-09T06:02:53.202Z,14.99
2017-09-09T06:03:53.200Z,15.01
2017-09-09T06:04:53.206Z,15.04
2017-09-09T06:05:53.206Z,15.04
2017-09-09T06:06:53.212Z,15.05
2017-09-09T06:07:53.213Z,15.07
2017-09-09T06:08:53.215Z,15.10
2017-09-09T06:09:53.221Z,15.13
2017-09-09T06:10:53.228Z,15.18
2017-09-09T06:11:53.236Z,15.20
2017-09-09T06:12:53.229Z,15.22
2017-09-09T06:13:53.258Z,15.24
2017-09-09T06:14:53.244Z,15.26
2017-09-09T06:15:53.246Z,15.29
2017-09-09T06:16:53.247Z,15.31
2017-09-09T06:17:53.250Z,15.35
2017-09-09T06:18:53.252Z,15.41
2017-09-09T06:19:53.260Z,15.44
2017-09-09T06:20:53.319Z,15.48
2017-09-09T06:21:53.261Z,15.51
2017-09-09T06:22:53.265Z,15.54
2017-09-09T06:23:53.282Z,15.57
2017-09-09T06:24:53.281Z,15.59
2017-09-09T06:25:53.281Z,15.61
2017-09-09T06:26:53.274Z,15.64
2017-09-09T06:27:53.281Z,15.66
2017-09-09T06:28:53.285Z,15.66
2017-09-09T06:29:53.296Z,15.68
2017-09-09T06:30:53.395Z,15.68
2017-09-09T06:31:53.295Z,15.70
2017-09-09T06:32:53.314Z,15.70
2017-09-09T06:33:53.317Z,15.71
2017-09-09T06:34:53.301Z,15.71
2017-09-09T06:35:53.309Z,15.74
2017-09-09T06:36:53.308Z,15.76
2017-09-09T06:37:53.313Z,15.79
2017-09-09T06:38:53.318Z,15.82
2017-09-09T06:39:53.319Z,15.82
2017-09-09T06:40:53.325Z,15.84
2017-09-09T06:41:53.334Z,15.84
2017-09-09T06:42:53.329Z,15.83
2017-09-09T06:43:53.335Z,15.84
2017-09-09T06:44:53.363Z,15.86
2017-09-09T06:45:53.343Z,15.89
2017-09-09T06:46:53.346Z,15.90
2017-09-09T06:47:53.343Z,15.89
2017-09-09T06:48:53.660Z,15.89
2017-09-09T06:49:53.351Z,15.90
2017-09-09T06:50:53.358Z,15.90
2017-09-09T06:51:53.364Z,15.92
2017-09-09T06:52:53.364Z,15.94
2017-09-09T06:53:53.367Z,15.95
2017-09-09T06:54:53.371Z,15.97
2017-09-09T06:55:53.373Z,15.98
2017-09-09T06:56:53.378Z,15.98
2017-09-09T06:57:53.393Z,15.98
2017-09-09T06:58:53.388Z,15.99
2017-09-09T06:59:53.386Z,16.01
2017-09-09T07:00:53.391Z,16.04
2017-09-09T07:01:53.394Z,16.07
2017-09-09T07:02:53.401Z,16.08
2017-09-09T07:03:53.403Z,16.11
2017-09-09T07:04:53.403Z,16.13
2017-09-09T07:05:53.406Z,16.14
2017-09-09T07:06:53.412Z,16.15
2017-09-09T07:07:53.411Z,16.14
2017-09-09T07:08:53.416Z,16.16
2017-09-09T07:09:53.417Z,16.18
2017-09-09T07:10:53.424Z,16.18
2017-09-09T07:11:53.439Z,16.19
2017-09-09T07:12:53.439Z,16.21
2017-09-09T07:13:53.447Z,16.22
2017-09-09T07:14:53.441Z,16.24
2017-09-09T07:15:53.439Z,16.27
2017-09-09T07:16:53.443Z,16.28
2017-09-09T07:17:53.452Z,16.29
2017-09-09T07:18:53.450Z,16.29
2017-09-09T07:19:53.451Z,16.32
2017-09-09T07:20:53.454Z,16.33
2017-09-09T07:21:53.459Z,16.34
2017-09-09T07:22:53.465Z,16.35
2017-09-09T07:23:53.471Z,16.34
2017-09-09T07:24:53.473Z,16.34
2017-09-09T07:25:53.472Z,16.35
2017-09-09T07:26:53.479Z,16.34
2017-09-09T07:27:53.500Z,16.33
2017-09-09T07:28:53.483Z,16.32
2017-09-09T07:29:53.485Z,16.33
2017-09-09T07:30:53.489Z,16.33
2017-09-09T07:31:53.493Z,16.34
2017-09-09T07:32:53.588Z,16.36
2017-09-09T07:33:53.502Z,16.38
2017-09-09T07:34:53.502Z,16.38
2017-09-09T07:35:53.506Z,16.40
2017-09-09T07:36:53.512Z,16.42
2017-09-09T07:37:53.511Z,16.42
2017-09-09T07:38:53.516Z,16.42
2017-09-09T07:39:53.523Z,16.43
2017-09-09T07:40:53.524Z,16.46
2017-09-09T07:41:53.528Z,16.46
2017-09-09T07:42:53.534Z,16.47
2017-09-09T07:43:53.532Z,16.45
2017-09-09T07:44:53.538Z,16.44
2017-09-09T07:45:53.545Z,16.44
2017-09-09T07:46:53.549Z,16.44
2017-09-09T07:47:53.544Z,16.43
2017-09-09T07:48:53.546Z,16.46
2017-09-09T07:49:53.553Z,16.48
2017-09-09T07:50:53.553Z,16.48
2017-09-09T07:51:53.558Z,16.47
2017-09-09T07:52:53.565Z,16.48
2017-09-09T07:53:53.568Z,16.48
2017-09-09T07:54:53.570Z,16.47
2017-09-09T07:55:53.571Z,16.45
2017-09-09T07:56:53.579Z,16.44
2017-09-09T07:57:53.580Z,16.42
2017-09-09T07:58:53.584Z,16.43
2017-09-09T07:59:53.585Z,16.41
2017-09-09T08:00:53.603Z,16.40
2017-09-09T08:01:53.609Z,16.40
2017-09-09T08:02:53.593Z,16.37
2017-09-09T08:03:53.596Z,16.37
2017-09-09T08:04:53.598Z,16.39
2017-09-09T08:05:53.604Z,16.39
2017-09-09T08:06:53.606Z,16.39
2017-09-09T08:07:53.611Z,16.40
2017-09-09T08:08:53.614Z,16.40
2017-09-09T08:09:53.619Z,16.39
2017-09-09T08:10:53.621Z,16.40
2017-09-09T08:11:53.636Z,16.40
2017-09-09T08:12:53.630Z,16.39
2017-09-09T08:13:53.642Z,16.39
2017-09-09T08:14:53.644Z,16.41
2017-09-09T08:15:53.654Z,16.42
2017-09-09T08:16:53.644Z,16.41
2017-09-09T08:17:53.648Z,16.40
2017-09-09T08:18:53.655Z,16.39
2017-09-09T08:19:53.669Z,16.39
2017-09-09T08:20:53.656Z,16.41
2017-09-09T08:21:53.657Z,16.43
2017-09-09T08:22:53.661Z,16.42
2017-09-09T08:23:53.666Z,16.42
2017-09-09T08:24:53.666Z,16.40
2017-09-09T08:25:53.667Z,16.41
2017-09-09T08:26:53.677Z,16.40
2017-09-09T08:27:53.700Z,16.42
2017-09-09T08:28:53.681Z,16.43
2017-09-09T08:29:53.687Z,16.45
2017-09-09T08:30:53.697Z,16.45
2017-09-09T08:31:53.693Z,16.48
2017-09-09T08:32:53.697Z,16.50
2017-09-09T08:33:53.697Z,16.53
2017-09-09T08:34:53.703Z,16.56
2017-09-09T08:35:53.708Z,16.58
2017-09-09T08:36:53.706Z,16.62
2017-09-09T08:37:53.714Z,16.68
2017-09-09T08:38:53.712Z,16.75
2017-09-09T08:39:53.722Z,16.80
2017-09-09T08:40:53.721Z,16.84
2017-09-09T08:41:53.733Z,16.89
2017-09-09T08:42:53.727Z,16.94
2017-09-09T08:43:53.749Z,16.99
2017-09-09T08:44:53.750Z,17.02
2017-09-09T08:45:53.908Z,17.05
2017-09-09T08:46:53.744Z,17.06
2017-09-09T08:47:53.750Z,17.08
2017-09-09T08:48:53.750Z,17.08
2017-09-09T08:49:53.749Z,17.09
2017-09-09T08:50:53.753Z,17.08
2017-09-09T08:51:53.757Z,17.06
2017-09-09T08:52:53.770Z,17.06
2017-09-09T08:53:53.761Z,17.03
2017-09-09T08:54:54.093Z,17.03
2017-09-09T08:55:53.769Z,17.04
2017-09-09T08:56:53.777Z,17.03
2017-09-09T08:57:53.802Z,17.05
2017-09-09T08:58:53.787Z,17.06
2017-09-09T08:59:53.794Z,17.07
2017-09-09T09:00:53.790Z,17.06
2017-09-09T09:01:53.803Z,17.07
2017-09-09T09:02:53.802Z,17.07
2017-09-09T09:03:53.801Z,17.12
2017-09-09T09:04:53.821Z,17.14
2017-09-09T09:05:53.804Z,17.14
2017-09-09T09:06:53.805Z,17.17
2017-09-09T09:07:53.810Z,17.19
2017-09-09T09:08:53.818Z,17.24
2017-09-09T09:09:53.820Z,17.29
2017-09-09T09:10:53.816Z,17.34
2017-09-09T09:11:53.825Z,17.39
2017-09-09T09:12:53.840Z,17.45
2017-09-09T09:13:53.839Z,17.46
2017-09-09T09:14:53.843Z,17.47
2017-09-09T09:15:53.860Z,17.46
2017-09-09T09:16:54.019Z,17.46
2017-09-09T09:17:53.843Z,17.45
2017-09-09T09:18:53.865Z,17.45
2017-09-09T09:19:53.847Z,17.43
2017-09-09T09:20:53.850Z,17.45
2017-09-09T09:21:53.867Z,17.47
2017-09-09T09:22:53.858Z,17.46
2017-09-09T09:23:53.865Z,17.47
2017-09-09T09:24:53.887Z,17.49
2017-09-09T09:25:53.870Z,17.52
2017-09-09T09:26:53.877Z,17.59
2017-09-09T09:27:53.876Z,17.62
2017-09-09T09:28:53.880Z,17.65
2017-09-09T09:29:53.896Z,17.69
2017-09-09T09:30:53.897Z,17.66
2017-09-09T09:31:53.888Z,17.64
2017-09-09T09:32:53.894Z,17.63
2017-09-09T09:33:53.898Z,17.60
2017-09-09T09:34:53.901Z,17.59
2017-09-09T09:35:53.902Z,17.59
2017-09-09T09:36:53.955Z,17.54
2017-09-09T09:37:53.917Z,17.50
2017-09-09T09:38:53.919Z,17.52
2017-09-09T09:39:53.919Z,17.49
2017-09-09T09:40:53.959Z,17.48
2017-09-09T09:41:53.922Z,17.45
2017-09-09T09:42:53.925Z,17.43
2017-09-09T09:43:53.930Z,17.41
2017-09-09T09:44:53.935Z,17.42
2017-09-09T09:45:53.953Z,17.41
2017-09-09T09:46:53.940Z,17.42
2017-09-09T09:47:53.960Z,17.42
2017-09-09T09:48:53.953Z,17.41
2017-09-09T09:49:54.076Z,17.38
2017-09-09T09:50:54.109Z,17.38
2017-09-09T09:51:54.337Z,17.36
2017-09-09T09:52:53.979Z,17.31
2017-09-09T09:53:53.989Z,17.28
2017-09-09T09:54:54.034Z,17.27
2017-09-09T09:55:54.029Z,17.24
2017-09-09T09:56:54.025Z,17.15
2017-09-09T09:57:53.984Z,16.98
2017-09-09T09:58:53.978Z,16.88
2017-09-09T09:59:54.032Z,16.78
2017-09-09T10:00:54.012Z,16.71
2017-09-09T10:01:53.988Z,16.66
2017-09-09T10:02:53.993Z,16.60
2017-09-09T10:03:54.014Z,16.52
2017-09-09T10:04:54.007Z,16.48
2017-09-09T10:05:54.014Z,16.42
2017-09-09T10:06:54.005Z,16.36
2017-09-09T10:07:54.018Z,16.34
2017-09-09T10:08:54.058Z,16.34
2017-09-09T10:09:54.023Z,16.33
2017-09-09T10:10:54.023Z,16.32
2017-09-09T10:11:54.025Z,16.30
2017-09-09T10:12:54.040Z,16.27
2017-09-09T10:13:54.031Z,16.28
2017-09-09T10:14:54.039Z,16.25
2017-09-09T10:15:54.044Z,16.24
2017-09-09T10:16:54.047Z,16.25
2017-09-09T10:17:54.046Z,16.28
2017-09-09T10:18:54.052Z,16.31
2017-09-09T10:19:54.057Z,16.32
2017-09-09T10:20:54.065Z,16.34
2017-09-09T10:21:54.060Z,16.37
2017-09-09T10:22:54.068Z,16.40
2017-09-09T10:23:54.066Z,16.42
2017-09-09T10:24:54.070Z,16.44
2017-09-09T10:25:54.070Z,16.49
2017-09-09T10:26:54.074Z,16.54
2017-09-09T10:27:54.078Z,16.61
2017-09-09T10:28:54.078Z,16.66
2017-09-09T10:29:54.083Z,16.70
2017-09-09T10:30:54.087Z,16.72
2017-09-09T10:31:54.090Z,16.75
2017-09-09T10:32:54.113Z,16.77
2017-09-09T10:33:54.122Z,16.78
2017-09-09T10:34:54.102Z,16.79
2017-09-09T10:35:54.130Z,16.80
2017-09-09T10:36:54.122Z,16.77
2017-09-09T10:37:54.122Z,16.75
2017-09-09T10:38:54.114Z,16.68
2017-09-09T10:39:54.117Z,16.63
2017-09-09T10:40:54.118Z,16.61
2017-09-09T10:41:54.125Z,16.55
2017-09-09T10:42:54.137Z,16.53
2017-09-09T10:43:54.128Z,16.52
2017-09-09T10:44:54.167Z,16.53
2017-09-09T10:45:54.153Z,16.51
2017-09-09T10:46:54.151Z,16.50
2017-09-09T10:47:54.206Z,16.49
2017-09-09T10:48:54.158Z,16.46
2017-09-09T10:49:54.177Z,16.46
2017-09-09T10:50:54.154Z,16.48
2017-09-09T10:51:54.154Z,16.48
2017-09-09T10:52:54.186Z,16.51
2017-09-09T10:53:54.163Z,16.54
2017-09-09T10:54:54.166Z,16.58
2017-09-09T10:55:54.171Z,16.61
2017-09-09T10:56:54.171Z,16.64
2017-09-09T10:57:54.176Z,16.68
2017-09-09T10:58:54.180Z,16.70
2017-09-09T10:59:54.184Z,16.70
2017-09-09T11:00:54.189Z,16.71
2017-09-09T11:01:54.202Z,16.73
2017-09-09T11:02:54.192Z,16.71
2017-09-09T11:03:54.200Z,16.71
2017-09-09T11:04:54.200Z,16.73
2017-09-09T11:05:54.200Z,16.74
2017-09-09T11:06:54.205Z,16.77
2017-09-09T11:07:54.207Z,16.75
2017-09-09T11:08:54.215Z,16.76
2017-09-09T11:09:54.218Z,16.74
2017-09-09T11:10:54.219Z,16.72
2017-09-09T11:11:54.243Z,16.70
2017-09-09T11:12:54.226Z,16.69
2017-09-09T11:13:54.287Z,16.71
2017-09-09T11:14:54.244Z,16.70
2017-09-09T11:15:54.278Z,16.74
2017-09-09T11:16:54.247Z,16.79
2017-09-09T11:17:54.407Z,16.84
2017-09-09T11:18:54.257Z,16.87
2017-09-09T11:19:54.290Z,16.89
2017-09-09T11:20:54.329Z,16.94
2017-09-09T11:21:54.294Z,16.99
2017-09-09T11:22:54.325Z,17.05
2017-09-09T11:23:54.286Z,17.09
2017-09-09T11:24:54.276Z,17.13
2017-09-09T11:25:54.279Z,17.17
2017-09-09T11:26:54.306Z,17.19
2017-09-09T11:27:54.277Z,17.20
2017-09-09T11:28:54.279Z,17.22
2017-09-09T11:29:54.283Z,17.20
2017-09-09T11:30:54.295Z,17.18
2017-09-09T11:31:54.290Z,17.14
2017-09-09T11:32:54.296Z,17.13
2017-09-09T11:33:54.299Z,17.09
2017-09-09T11:34:54.302Z,17.06
2017-09-09T11:35:54.301Z,17.01
2017-09-09T11:36:54.325Z,16.99
2017-09-09T11:37:54.310Z,16.95
2017-09-09T11:38:54.317Z,16.93
2017-09-09T11:39:54.321Z,16.91
2017-09-09T11:40:54.351Z,16.91
2017-09-09T11:41:54.323Z,16.89
2017-09-09T11:42:54.352Z,16.89
2017-09-09T11:43:54.342Z,16.88
2017-09-09T11:44:54.437Z,16.87
2017-09-09T11:45:54.379Z,16.88
2017-09-09T11:46:54.359Z,16.89
2017-09-09T11:47:54.366Z,16.89
2017-09-09T11:48:54.410Z,16.90
2017-09-09T11:49:54.367Z,16.93
2017-09-09T11:50:54.387Z,16.94
2017-09-09T11:51:54.360Z,16.95
2017-09-09T11:52:54.372Z,16.95
2017-09-09T11:53:54.362Z,16.95
2017-09-09T11:54:54.367Z,16.95
2017-09-09T11:55:54.370Z,16.95
2017-09-09T11:56:54.374Z,16.95
2017-09-09T11:57:54.400Z,16.96
2017-09-09T11:58:54.380Z,16.98
2017-09-09T11:59:54.392Z,16.95
2017-09-09T12:00:54.389Z,16.96
2017-09-09T12:01:54.395Z,16.97
2017-09-09T12:02:54.393Z,16.97
2017-09-09T12:03:54.401Z,16.97
2017-09-09T12:04:54.399Z,16.97
2017-09-09T12:05:54.405Z,16.96
2017-09-09T12:06:54.407Z,16.97
2017-09-09T12:07:54.412Z,16.96
2017-09-09T12:08:54.575Z,16.97
2017-09-09T12:09:54.422Z,16.95
2017-09-09T12:10:54.779Z,16.96
2017-09-09T12:11:54.623Z,16.97
2017-09-09T12:12:54.428Z,16.98
2017-09-09T12:13:54.450Z,16.99
2017-09-09T12:14:54.462Z,17.04
2017-09-09T12:15:54.446Z,17.09
2017-09-09T12:16:54.546Z,17.23
2017-09-09T12:17:54.480Z,17.37
2017-09-09T12:18:54.450Z,17.44
2017-09-09T12:19:54.460Z,17.56
2017-09-09T12:20:54.463Z,17.66
2017-09-09T12:21:54.459Z,17.71
2017-09-09T12:22:54.461Z,17.77
2017-09-09T12:23:54.465Z,17.83
2017-09-09T12:24:54.473Z,17.98
2017-09-09T12:25:54.477Z,18.10
2017-09-09T12:26:54.474Z,18.19
2017-09-09T12:27:54.481Z,18.27
2017-09-09T12:28:55.007Z,18.33
2017-09-09T12:29:54.497Z,18.42
2017-09-09T12:30:55.988Z,18.47
2017-09-09T12:31:54.673Z,18.55
2017-09-09T12:32:54.495Z,18.66
2017-09-09T12:33:54.522Z,18.72
2017-09-09T12:34:54.516Z,18.76
2017-09-09T12:35:54.529Z,18.77
2017-09-09T12:36:54.505Z,18.76
2017-09-09T12:37:54.524Z,18.74
2017-09-09T12:38:54.536Z,18.79
2017-09-09T12:39:54.548Z,18.73
2017-09-09T12:40:54.520Z,18.63
2017-09-09T12:41:54.521Z,18.57
2017-09-09T12:42:54.528Z,18.55
2017-09-09T12:43:54.528Z,18.47
2017-09-09T12:44:54.532Z,18.37
2017-09-09T12:45:54.536Z,18.30
2017-09-09T12:46:54.538Z,18.28
2017-09-09T12:47:54.545Z,18.28
2017-09-09T12:48:54.554Z,18.28
2017-09-09T12:49:54.577Z,18.26
2017-09-09T12:50:54.563Z,18.25
2017-09-09T12:51:54.570Z,18.22